createdAt,value
2018-07-05T00:00:14.598Z,20.18
2018-07-05T00:01:14.606Z,20.06
2018-07-05T00:02:14.607Z,20.03
2018-07-05T00:03:14.613Z,20.07
2018-07-05T00:04:14.617Z,20.11
2018-07-05T00:05:14.631Z,20.07
2018-07-05T00:06:14.627Z,19.96
2018-07-05T00:07:14.632Z,19.94
2018-07-05T00:08:14.637Z,19.88
2018-07-05T00:09:14.641Z,19.85
2018-07-05T00:10:14.645Z,19.92
2018-07-05T00:11:14.654Z,19.77
2018-07-05T00:12:14.655Z,19.77
2018-07-05T00:13:14.661Z,19.79
2018-07-05T00:14:14.664Z,19.70
2018-07-05T00:15:14.671Z,19.66
2018-07-05T00:16:14.674Z,19.58
2018-07-05T00:17:14.678Z,19.66
2018-07-05T00:18:14.683Z,19.64
2018-07-05T00:19:14.687Z,19.73
2018-07-05T00:20:14.692Z,19.55
2018-07-05T00:21:14.696Z,19.51
2018-07-05T00:22:14.701Z,19.48
2018-07-05T00:23:14.706Z,19.51
2018-07-05T00:24:14.708Z,19.49
2018-07-05T00:25:14.714Z,19.49
2018-07-05T00:26:14.720Z,19.44
2018-07-05T00:27:14.723Z,19.41
2018-07-05T00:28:14.727Z,19.36
2018-07-05T00:29:14.731Z,19.30
2018-07-05T00:30:14.736Z,19.33
2018-07-05T00:31:14.741Z,19.33
2018-07-05T00:32:14.744Z,19.31
2018-07-05T00:33:14.749Z,19.34
2018-07-05T00:34:14.753Z,19.41
2018-07-05T00:35:14.762Z,19.36
2018-07-05T00:36:14.761Z,19.30
2018-07-05T00:37:14.765Z,19.33
2018-07-05T00:38:14.770Z,19.31
2018-07-05T00:39:14.775Z,19.24
2018-07-05T00:40:14.779Z,19.29
2018-07-05T00:41:14.785Z,19.31
2018-07-05T00:42:14.787Z,19.26
2018-07-05T00:43:14.792Z,19.27
2018-07-05T00:44:14.794Z,19.27
2018-07-05T00:45:14.801Z,19.24
2018-07-05T00:46:14.803Z,19.19
2018-07-05T00:47:14.813Z,19.21
2018-07-05T00:48:14.812Z,19.14
2018-07-05T00:49:14.819Z,19.14
2018-07-05T00:50:14.862Z,19.11
2018-07-05T00:51:14.829Z,19.09
2018-07-05T00:52:14.830Z,19.09
2018-07-05T00:53:14.833Z,18.99
2018-07-05T00:54:14.836Z,19.11
2018-07-05T00:55:14.842Z,19.07
2018-07-05T00:56:14.844Z,18.99
2018-07-05T00:57:14.848Z,19.02
2018-07-05T00:58:14.851Z,18.98
2018-07-05T00:59:14.856Z,18.92
2018-07-05T01:00:14.860Z,18.93
2018-07-05T01:01:14.864Z,18.86
2018-07-05T01:02:14.869Z,18.88
2018-07-05T01:03:14.876Z,18.84
2018-07-05T01:04:14.875Z,18.90
2018-07-05T01:05:14.881Z,18.84
2018-07-05T01:06:14.883Z,18.92
2018-07-05T01:07:14.888Z,18.88
2018-07-05T01:08:14.891Z,18.93
2018-07-05T01:09:14.895Z,18.89
2018-07-05T01:10:14.899Z,18.84
2018-07-05T01:11:14.901Z,18.84
2018-07-05T01:12:14.905Z,18.88
2018-07-05T01:13:14.910Z,18.90
2018-07-05T01:14:14.914Z,18.89
2018-07-05T01:15:14.918Z,18.80
2018-07-05T01:16:14.923Z,18.84
2018-07-05T01:17:14.925Z,18.88
2018-07-05T01:18:14.929Z,18.81
2018-07-05T01:19:14.933Z,18.88
2018-07-05T01:20:14.936Z,18.86
2018-07-05T01:21:14.940Z,18.83
2018-07-05T01:22:14.944Z,18.80
2018-07-05T01:23:14.951Z,18.74
2018-07-05T01:24:14.951Z,18.78
2018-07-05T01:25:14.954Z,18.74
2018-07-05T01:26:14.958Z,18.74
2018-07-05T01:27:14.964Z,18.73
2018-07-05T01:28:14.965Z,18.66
2018-07-05T01:29:14.969Z,18.74
2018-07-05T01:30:14.977Z,18.73
2018-07-05T01:31:14.977Z,18.80
2018-07-05T01:32:14.980Z,18.81
2018-07-05T01:33:14.983Z,18.78
2018-07-05T01:34:14.988Z,18.74
2018-07-05T01:35:14.992Z,18.78
2018-07-05T01:36:14.994Z,18.84
2018-07-05T01:37:14.998Z,18.74
2018-07-05T01:38:15.005Z,18.68
2018-07-05T01:39:15.006Z,18.78
2018-07-05T01:40:15.009Z,18.66
2018-07-05T01:41:15.012Z,18.71
2018-07-05T01:42:15.017Z,18.73
2018-07-05T01:43:15.019Z,18.66
2018-07-05T01:44:15.026Z,18.63
2018-07-05T01:45:15.032Z,18.62
2018-07-05T01:46:15.031Z,18.68
2018-07-05T01:47:15.034Z,18.58
2018-07-05T01:48:15.037Z,18.59
2018-07-05T01:49:15.041Z,18.62
2018-07-05T01:50:15.045Z,18.56
2018-07-05T01:51:15.048Z,18.47
2018-07-05T01:52:15.051Z,18.49
2018-07-05T01:53:15.053Z,18.43
2018-07-05T01:54:15.058Z,18.45
2018-07-05T01:55:15.063Z,18.43
2018-07-05T01:56:15.064Z,18.49
2018-07-05T01:57:15.068Z,18.40
2018-07-05T01:58:15.072Z,18.49
2018-07-05T01:59:15.075Z,18.43
2018-07-05T02:00:15.078Z,18.43
2018-07-05T02:01:15.081Z,18.43
2018-07-05T02:02:15.084Z,18.38
2018-07-05T02:03:15.089Z,18.38
2018-07-05T02:04:15.092Z,18.34
2018-07-05T02:05:15.096Z,18.40
2018-07-05T02:06:15.098Z,18.34
2018-07-05T02:07:15.102Z,18.23
2018-07-05T02:08:15.105Z,18.25
2018-07-05T02:09:15.108Z,18.26
2018-07-05T02:10:15.112Z,18.23
2018-07-05T02:11:15.115Z,18.23
2018-07-05T02:12:15.118Z,18.22
2018-07-05T02:13:15.124Z,18.25
2018-07-05T02:14:15.127Z,18.23
2018-07-05T02:15:15.129Z,18.23
2018-07-05T02:16:15.131Z,18.22
2018-07-05T02:17:15.133Z,18.20
2018-07-05T02:18:15.138Z,18.10
2018-07-05T02:19:15.141Z,18.16
2018-07-05T02:20:15.144Z,18.04
2018-07-05T02:21:15.147Z,18.10
2018-07-05T02:22:15.152Z,18.08
2018-07-05T02:23:15.154Z,18.13
2018-07-05T02:24:15.158Z,17.97
2018-07-05T02:25:15.160Z,18.00
2018-07-05T02:26:15.163Z,18.03
2018-07-05T02:27:15.167Z,17.94
2018-07-05T02:28:15.170Z,17.95
2018-07-05T02:29:15.178Z,17.98
2018-07-05T02:30:15.177Z,17.94
2018-07-05T02:31:15.181Z,17.89
2018-07-05T02:32:15.183Z,17.97
2018-07-05T02:33:15.186Z,17.95
2018-07-05T02:34:15.190Z,17.94
2018-07-05T02:35:15.192Z,17.92
2018-07-05T02:36:15.196Z,17.83
2018-07-05T02:37:15.199Z,17.90
2018-07-05T02:38:15.202Z,17.86
2018-07-05T02:39:15.206Z,17.94
2018-07-05T02:40:15.208Z,17.87
2018-07-05T02:41:15.211Z,17.89
2018-07-05T02:42:15.214Z,17.89
2018-07-05T02:43:15.218Z,17.90
2018-07-05T02:44:15.222Z,17.83
2018-07-05T02:45:15.224Z,17.90
2018-07-05T02:46:15.228Z,17.86
2018-07-05T02:47:15.231Z,17.92
2018-07-05T02:48:15.238Z,17.79
2018-07-05T02:49:15.236Z,17.83
2018-07-05T02:50:15.240Z,17.86
2018-07-05T02:51:15.244Z,17.83
2018-07-05T02:52:15.246Z,17.90
2018-07-05T02:53:15.249Z,17.82
2018-07-05T02:54:15.252Z,17.87
2018-07-05T02:55:15.261Z,17.85
2018-07-05T02:56:15.258Z,17.78
2018-07-05T02:57:15.265Z,17.83
2018-07-05T02:58:15.268Z,17.83
2018-07-05T02:59:15.268Z,17.82
2018-07-05T03:00:15.271Z,17.76
2018-07-05T03:01:15.275Z,17.79
2018-07-05T03:02:15.277Z,17.70
2018-07-05T03:03:15.285Z,17.82
2018-07-05T03:04:15.283Z,17.80
2018-07-05T03:05:15.288Z,17.79
2018-07-05T03:06:15.307Z,17.83
2018-07-05T03:07:15.294Z,17.74
2018-07-05T03:08:15.294Z,17.79
2018-07-05T03:09:15.299Z,17.83
2018-07-05T03:10:15.302Z,17.86
2018-07-05T03:11:15.305Z,17.94
2018-07-05T03:12:15.312Z,17.87
2018-07-05T03:13:15.311Z,17.78
2018-07-05T03:14:15.313Z,17.83
2018-07-05T03:15:15.317Z,17.86
2018-07-05T03:16:15.320Z,17.82
2018-07-05T03:17:15.324Z,17.80
2018-07-05T03:18:15.328Z,17.86
2018-07-05T03:19:15.330Z,17.85
2018-07-05T03:20:15.331Z,17.83
2018-07-05T03:21:15.334Z,17.79
2018-07-05T03:22:15.338Z,17.82
2018-07-05T03:23:15.340Z,17.79
2018-07-05T03:24:15.343Z,17.85
2018-07-05T03:25:15.346Z,17.80
2018-07-05T03:26:15.349Z,17.80
2018-07-05T03:27:15.355Z,17.86
2018-07-05T03:28:15.354Z,17.82
2018-07-05T03:29:15.357Z,17.86
2018-07-05T03:30:15.361Z,17.85
2018-07-05T03:31:15.364Z,17.85
2018-07-05T03:32:15.366Z,17.90
2018-07-05T03:33:15.370Z,17.89
2018-07-05T03:34:15.373Z,17.95
2018-07-05T03:35:15.376Z,17.90
2018-07-05T03:36:15.379Z,17.87
2018-07-05T03:37:15.382Z,17.89
2018-07-05T03:38:15.387Z,17.97
2018-07-05T03:39:15.388Z,17.94
2018-07-05T03:40:15.391Z,17.98
2018-07-05T03:41:15.394Z,17.89
2018-07-05T03:42:15.398Z,17.95
2018-07-05T03:43:15.407Z,18.00
2018-07-05T03:44:15.404Z,18.01
2018-07-05T03:45:15.406Z,18.00
2018-07-05T03:46:15.409Z,18.07
2018-07-05T03:47:15.413Z,18.00
2018-07-05T03:48:15.415Z,17.97
2018-07-05T03:49:15.419Z,17.94
2018-07-05T03:50:15.421Z,17.97
2018-07-05T03:51:15.425Z,18.03
2018-07-05T03:52:15.427Z,17.92
2018-07-05T03:53:15.435Z,17.98
2018-07-05T03:54:15.435Z,18.01
2018-07-05T03:55:15.437Z,18.00
2018-07-05T03:56:15.441Z,18.08
2018-07-05T03:57:15.443Z,18.08
2018-07-05T03:58:15.448Z,18.08
2018-07-05T03:59:15.451Z,18.18
2018-07-05T04:00:15.454Z,18.19
2018-07-05T04:01:15.456Z,18.23
2018-07-05T04:02:15.460Z,18.25
2018-07-05T04:03:15.469Z,18.18
2018-07-05T04:04:15.466Z,18.25
2018-07-05T04:05:15.469Z,18.20
2018-07-05T04:06:15.472Z,18.29
2018-07-05T04:07:15.476Z,18.28
2018-07-05T04:08:15.525Z,18.35
2018-07-05T04:09:15.482Z,18.41
2018-07-05T04:10:15.486Z,18.45
2018-07-05T04:11:15.493Z,18.49
2018-07-05T04:12:15.491Z,18.49
2018-07-05T04:13:15.494Z,18.52
2018-07-05T04:14:15.498Z,18.60
2018-07-05T04:15:15.503Z,18.59
2018-07-05T04:16:15.504Z,18.65
2018-07-05T04:17:15.509Z,18.52
2018-07-05T04:18:15.518Z,18.53
2018-07-05T04:19:15.516Z,18.50
2018-07-05T04:20:15.519Z,18.52
2018-07-05T04:21:15.522Z,18.52
2018-07-05T04:22:15.525Z,18.52
2018-07-05T04:23:15.531Z,18.49
2018-07-05T04:24:15.533Z,18.38
2018-07-05T04:25:15.539Z,18.34
2018-07-05T04:26:15.541Z,18.37
2018-07-05T04:27:15.545Z,18.45
2018-07-05T04:28:15.547Z,18.37
2018-07-05T04:29:15.555Z,18.41
2018-07-05T04:30:15.555Z,18.49
2018-07-05T04:31:15.559Z,18.53
2018-07-05T04:32:15.561Z,18.53
2018-07-05T04:33:15.565Z,18.53
2018-07-05T04:34:15.589Z,18.56
2018-07-05T04:35:15.574Z,18.56
2018-07-05T04:36:15.576Z,18.52
2018-07-05T04:37:15.579Z,18.58
2018-07-05T04:38:15.584Z,18.56
2018-07-05T04:39:15.588Z,18.52
2018-07-05T04:40:15.591Z,18.65
2018-07-05T04:41:15.595Z,18.66
2018-07-05T04:42:15.599Z,18.71
2018-07-05T04:43:15.603Z,18.70
2018-07-05T04:44:15.608Z,18.83
2018-07-05T04:45:15.609Z,18.81
2018-07-05T04:46:15.612Z,18.75
2018-07-05T04:47:15.616Z,18.78
2018-07-05T04:48:15.619Z,18.90
2018-07-05T04:49:15.624Z,18.84
2018-07-05T04:50:15.627Z,18.77
2018-07-05T04:51:15.633Z,18.75
2018-07-05T04:52:15.634Z,18.66
2018-07-05T04:53:15.640Z,18.70
2018-07-05T04:54:15.643Z,18.70
2018-07-05T04:55:15.647Z,18.81
2018-07-05T04:56:15.652Z,18.83
2018-07-05T04:57:15.653Z,18.95
2018-07-05T04:58:15.659Z,18.89
2018-07-05T04:59:15.663Z,18.90
2018-07-05T05:00:15.666Z,18.84
2018-07-05T05:01:15.669Z,18.92
2018-07-05T05:02:15.675Z,18.99
2018-07-05T05:03:15.677Z,18.96
2018-07-05T05:04:15.681Z,19.00
2018-07-05T05:05:15.687Z,19.08
2018-07-05T05:06:15.689Z,19.08
2018-07-05T05:07:15.696Z,18.99
2018-07-05T05:08:15.697Z,19.14
2018-07-05T05:09:15.701Z,19.16
2018-07-05T05:10:15.705Z,19.19
2018-07-05T05:11:15.709Z,19.18
2018-07-05T05:12:15.714Z,19.19
2018-07-05T05:13:15.716Z,19.18
2018-07-05T05:14:15.721Z,19.26
2018-07-05T05:15:15.725Z,19.30
2018-07-05T05:16:15.729Z,19.45
2018-07-05T05:17:15.734Z,19.41
2018-07-05T05:18:15.737Z,19.49
2018-07-05T05:19:15.741Z,19.51
2018-07-05T05:20:15.745Z,19.55
2018-07-05T05:21:15.748Z,19.59
2018-07-05T05:22:15.754Z,19.56
2018-07-05T05:23:15.758Z,19.81
2018-07-05T05:24:15.782Z,20.47
2018-07-05T05:25:15.767Z,21.06
2018-07-05T05:26:15.772Z,21.60
2018-07-05T05:27:15.776Z,22.00
2018-07-05T05:28:15.783Z,22.23
2018-07-05T05:29:15.794Z,22.62
2018-07-05T05:30:15.794Z,22.69
2018-07-05T05:31:15.799Z,22.87
2018-07-05T05:32:15.806Z,22.88
2018-07-05T05:33:15.811Z,23.09
2018-07-05T05:34:15.819Z,23.25
2018-07-05T05:35:15.826Z,23.05
2018-07-05T05:36:15.832Z,23.27
2018-07-05T05:37:15.841Z,23.24
2018-07-05T05:38:15.849Z,23.62
2018-07-05T05:39:15.858Z,23.81
2018-07-05T05:40:15.865Z,23.81
2018-07-05T05:41:15.873Z,23.74
2018-07-05T05:42:15.882Z,23.91
2018-07-05T05:43:15.891Z,23.98
2018-07-05T05:44:15.898Z,23.78
2018-07-05T05:45:15.906Z,23.71
2018-07-05T05:46:15.916Z,23.32
2018-07-05T05:47:15.926Z,22.73
2018-07-05T05:48:15.955Z,22.30
2018-07-05T05:49:15.944Z,22.38
2018-07-05T05:50:15.957Z,22.35
2018-07-05T05:51:15.961Z,22.53
2018-07-05T05:52:15.969Z,22.35
2018-07-05T05:53:15.978Z,22.22
2018-07-05T05:54:15.984Z,22.25
2018-07-05T05:55:15.994Z,22.18
2018-07-05T05:56:16.006Z,22.28
2018-07-05T05:57:16.012Z,22.20
2018-07-05T05:58:16.020Z,22.06
2018-07-05T05:59:16.027Z,21.79
2018-07-05T06:00:16.034Z,21.75
2018-07-05T06:01:16.045Z,21.69
2018-07-05T06:02:16.049Z,21.77
2018-07-05T06:03:16.057Z,21.75
2018-07-05T06:04:16.067Z,21.66
2018-07-05T06:05:16.073Z,21.58
2018-07-05T06:06:16.125Z,21.64
2018-07-05T06:07:16.088Z,21.61
2018-07-05T06:08:16.094Z,21.67
2018-07-05T06:09:16.101Z,21.52
2018-07-05T06:10:16.110Z,21.57
2018-07-05T06:11:16.118Z,21.64
2018-07-05T06:12:16.124Z,21.72
2018-07-05T06:13:16.130Z,21.83
2018-07-05T06:14:16.139Z,21.77
2018-07-05T06:15:16.149Z,21.83
2018-07-05T06:16:16.152Z,21.80
2018-07-05T06:17:16.160Z,21.73
2018-07-05T06:18:16.167Z,21.76
2018-07-05T06:19:16.173Z,21.92
2018-07-05T06:20:16.179Z,21.75
2018-07-05T06:21:16.187Z,21.76
2018-07-05T06:22:16.195Z,21.57
2018-07-05T06:23:16.205Z,21.60
2018-07-05T06:24:16.208Z,21.37
2018-07-05T06:25:16.214Z,21.29
2018-07-05T06:26:16.223Z,21.24
2018-07-05T06:27:16.229Z,21.39
2018-07-05T06:28:16.234Z,21.39
2018-07-05T06:29:16.242Z,21.54
2018-07-05T06:30:16.249Z,21.48
2018-07-05T06:31:16.262Z,21.67
2018-07-05T06:32:16.262Z,21.73
2018-07-05T06:33:16.268Z,21.83
2018-07-05T06:34:16.345Z,21.99
2018-07-05T06:35:16.282Z,22.18
2018-07-05T06:36:16.289Z,22.13
2018-07-05T06:37:16.295Z,22.23
2018-07-05T06:38:16.305Z,22.25
2018-07-05T06:39:16.309Z,22.32
2018-07-05T06:40:16.341Z,22.36
2018-07-05T06:41:16.323Z,22.39
2018-07-05T06:42:16.329Z,22.43
2018-07-05T06:43:16.336Z,22.35
2018-07-05T06:44:16.342Z,22.29
2018-07-05T06:45:16.349Z,22.30
2018-07-05T06:46:16.356Z,22.35
2018-07-05T06:47:16.363Z,22.43
2018-07-05T06:48:16.368Z,22.51
2018-07-05T06:49:16.383Z,22.28
2018-07-05T06:50:16.382Z,22.25
2018-07-05T06:51:16.390Z,22.38
2018-07-05T06:52:16.396Z,22.51
2018-07-05T06:53:16.401Z,22.30
2018-07-05T06:54:16.410Z,22.18
2018-07-05T06:55:16.417Z,22.26
2018-07-05T06:56:16.422Z,22.33
2018-07-05T06:57:16.429Z,22.41
2018-07-05T06:58:16.438Z,22.36
2018-07-05T06:59:16.500Z,22.44
2018-07-05T07:00:16.450Z,22.57
2018-07-05T07:01:16.456Z,22.66
2018-07-05T07:02:16.464Z,22.69
2018-07-05T07:03:16.474Z,22.84
2018-07-05T07:04:16.477Z,22.84
2018-07-05T07:05:16.485Z,22.84
2018-07-05T07:06:16.495Z,22.68
2018-07-05T07:07:16.498Z,22.78
2018-07-05T07:08:16.505Z,22.76
2018-07-05T07:09:16.511Z,22.76
2018-07-05T07:10:16.519Z,22.99
2018-07-05T07:11:16.525Z,23.02
2018-07-05T07:12:16.542Z,23.05
2018-07-05T07:13:16.541Z,23.28
2018-07-05T07:14:16.547Z,23.47
2018-07-05T07:15:16.555Z,23.58
2018-07-05T07:16:16.559Z,23.65
2018-07-05T07:17:16.567Z,23.76
2018-07-05T07:18:16.575Z,23.81
2018-07-05T07:19:16.583Z,23.66
2018-07-05T07:20:16.588Z,23.65
2018-07-05T07:21:16.596Z,23.63
2018-07-05T07:22:16.606Z,23.80
2018-07-05T07:23:16.614Z,24.08
2018-07-05T07:24:16.618Z,24.17
2018-07-05T07:25:16.625Z,24.23
2018-07-05T07:26:16.633Z,24.24
2018-07-05T07:27:16.640Z,24.39
2018-07-05T07:28:16.646Z,24.38
2018-07-05T07:29:16.655Z,24.42
2018-07-05T07:30:16.663Z,24.42
2018-07-05T07:31:16.714Z,24.26
2018-07-05T07:32:16.680Z,24.40
2018-07-05T07:33:16.688Z,24.66
2018-07-05T07:34:16.694Z,24.77
2018-07-05T07:35:16.703Z,24.89
2018-07-05T07:36:16.711Z,24.86
2018-07-05T07:37:16.722Z,25.46
2018-07-05T07:38:16.729Z,26.16
2018-07-05T07:39:16.742Z,25.99
2018-07-05T07:40:16.747Z,25.69
2018-07-05T07:41:16.757Z,25.53
2018-07-05T07:42:16.766Z,25.21
2018-07-05T07:43:16.777Z,25.50
2018-07-05T07:44:16.785Z,25.70
2018-07-05T07:45:16.843Z,26.19
2018-07-05T07:46:16.806Z,26.52
2018-07-05T07:47:16.816Z,26.62
2018-07-05T07:48:16.826Z,27.10
2018-07-05T07:49:16.836Z,27.26
2018-07-05T07:50:16.848Z,27.52
2018-07-05T07:51:16.910Z,27.83
2018-07-05T07:52:16.870Z,28.41
2018-07-05T07:53:16.881Z,28.84
2018-07-05T07:54:16.894Z,28.79
2018-07-05T07:55:16.906Z,28.38
2018-07-05T07:56:16.918Z,28.27
2018-07-05T07:57:16.930Z,28.07
2018-07-05T07:58:16.949Z,28.15
2018-07-05T07:59:16.958Z,27.59
2018-07-05T08:00:16.968Z,27.71
2018-07-05T08:01:16.982Z,27.42
2018-07-05T08:02:16.997Z,26.51
2018-07-05T08:03:17.008Z,26.45
2018-07-05T08:04:17.025Z,26.59
2018-07-05T08:05:17.036Z,26.56
2018-07-05T08:06:17.050Z,26.25
2018-07-05T08:07:17.063Z,25.99
2018-07-05T08:08:17.080Z,26.10
2018-07-05T08:09:17.089Z,26.41
2018-07-05T08:10:17.104Z,26.48
2018-07-05T08:11:17.120Z,26.90
2018-07-05T08:12:17.130Z,26.93
2018-07-05T08:13:17.142Z,27.21
2018-07-05T08:14:17.155Z,27.67
2018-07-05T08:15:17.170Z,27.55
2018-07-05T08:16:17.184Z,27.64
2018-07-05T08:17:17.198Z,27.89
2018-07-05T08:18:17.212Z,28.19
2018-07-05T08:19:17.224Z,28.38
2018-07-05T08:20:17.239Z,28.49
2018-07-05T08:21:17.253Z,28.42
2018-07-05T08:22:17.267Z,28.54
2018-07-05T08:23:17.281Z,28.48
2018-07-05T08:24:17.294Z,29.13
2018-07-05T08:25:17.308Z,29.20
2018-07-05T08:26:17.322Z,29.49
2018-07-05T08:27:17.335Z,28.98
2018-07-05T08:28:17.350Z,28.94
2018-07-05T08:29:17.364Z,29.12
2018-07-05T08:30:17.380Z,28.98
2018-07-05T08:31:17.400Z,29.31
2018-07-05T08:32:17.407Z,29.31
2018-07-05T08:33:17.423Z,29.12
2018-07-05T08:34:17.438Z,29.07
2018-07-05T08:35:17.451Z,28.85
2018-07-05T08:36:17.466Z,28.89
2018-07-05T08:37:17.480Z,28.84
2018-07-05T08:38:17.495Z,29.05
2018-07-05T08:39:17.509Z,29.12
2018-07-05T08:40:17.525Z,28.74
2018-07-05T08:41:17.538Z,28.49
2018-07-05T08:42:17.557Z,28.84
2018-07-05T08:43:17.567Z,29.44
2018-07-05T08:44:17.581Z,29.08
2018-07-05T08:45:17.596Z,28.76
2018-07-05T08:46:17.610Z,29.17
2018-07-05T08:47:17.626Z,29.60
2018-07-05T08:48:17.641Z,29.01
2018-07-05T08:49:17.654Z,28.81
2018-07-05T08:50:17.672Z,29.07
2018-07-05T08:51:17.738Z,29.27
2018-07-05T08:52:17.697Z,29.49
2018-07-05T08:53:17.711Z,28.85
2018-07-05T08:54:17.727Z,27.98
2018-07-05T08:55:17.745Z,28.39
2018-07-05T08:56:17.757Z,29.10
2018-07-05T08:57:17.770Z,29.57
2018-07-05T08:58:17.827Z,29.76
2018-07-05T08:59:17.800Z,30.13
2018-07-05T09:00:17.861Z,30.06
2018-07-05T09:01:17.829Z,30.39
2018-07-05T09:02:17.844Z,29.32
2018-07-05T09:03:17.861Z,29.19
2018-07-05T09:04:17.874Z,29.73
2018-07-05T09:05:17.899Z,29.54
2018-07-05T09:06:17.903Z,29.39
2018-07-05T09:07:17.917Z,29.02
2018-07-05T09:08:17.931Z,29.29
2018-07-05T09:09:17.945Z,29.27
2018-07-05T09:10:17.961Z,28.79
2018-07-05T09:11:17.975Z,29.23
2018-07-05T09:12:17.990Z,29.56
2018-07-05T09:13:18.004Z,30.16
2018-07-05T09:14:18.018Z,29.79
2018-07-05T09:15:18.034Z,30.28
2018-07-05T09:16:18.047Z,30.59
2018-07-05T09:17:18.075Z,30.62
2018-07-05T09:18:18.182Z,30.62
2018-07-05T09:19:18.092Z,30.43
2018-07-05T09:20:18.105Z,30.37
2018-07-05T09:21:18.119Z,29.87
2018-07-05T09:22:18.136Z,30.15
2018-07-05T09:23:18.216Z,30.32
2018-07-05T09:24:18.169Z,30.30
2018-07-05T09:25:18.179Z,30.65
2018-07-05T09:26:18.195Z,30.65
2018-07-05T09:27:18.208Z,30.46
2018-07-05T09:28:18.222Z,30.55
2018-07-05T09:29:18.238Z,30.68
2018-07-05T09:30:18.253Z,30.77
2018-07-05T09:31:18.326Z,30.70
2018-07-05T09:32:18.280Z,30.99
2018-07-05T09:33:18.300Z,30.65
2018-07-05T09:34:18.313Z,29.86
2018-07-05T09:35:18.327Z,30.00
2018-07-05T09:36:18.342Z,29.47
2018-07-05T09:37:18.384Z,29.31
2018-07-05T09:38:18.372Z,29.65
2018-07-05T09:39:18.386Z,28.97
2018-07-05T09:40:18.401Z,29.24
2018-07-05T09:41:18.416Z,29.49
2018-07-05T09:42:18.435Z,29.61
2018-07-05T09:43:18.446Z,29.78
2018-07-05T09:44:18.460Z,30.05
2018-07-05T09:45:18.477Z,30.06
2018-07-05T09:46:18.492Z,30.18
2018-07-05T09:47:18.507Z,30.02
2018-07-05T09:48:18.522Z,29.61
2018-07-05T09:49:18.537Z,30.53
2018-07-05T09:50:18.553Z,31.17
2018-07-05T09:51:18.566Z,31.61
2018-07-05T09:52:18.581Z,31.25
2018-07-05T09:53:18.599Z,31.17
2018-07-05T09:54:18.611Z,31.10
2018-07-05T09:55:18.625Z,31.07
2018-07-05T09:56:18.643Z,30.97
2018-07-05T09:57:18.656Z,29.95
2018-07-05T09:58:18.674Z,30.37
2018-07-05T09:59:18.687Z,30.66
2018-07-05T10:00:18.701Z,31.31
2018-07-05T10:01:18.715Z,31.56
2018-07-05T10:02:18.731Z,31.76
2018-07-05T10:03:18.747Z,31.81
2018-07-05T10:04:18.760Z,31.85
2018-07-05T10:05:18.777Z,31.59
2018-07-05T10:06:18.793Z,31.07
2018-07-05T10:07:18.808Z,30.92
2018-07-05T10:08:18.821Z,30.81
2018-07-05T10:09:18.837Z,30.50
2018-07-05T10:10:18.853Z,30.35
2018-07-05T10:11:18.868Z,29.81
2018-07-05T10:12:18.881Z,29.90
2018-07-05T10:13:19.053Z,29.79
2018-07-05T10:14:18.913Z,29.51
2018-07-05T10:15:18.931Z,30.47
2018-07-05T10:16:18.945Z,31.02
2018-07-05T10:17:18.959Z,31.47
2018-07-05T10:18:18.972Z,32.07
2018-07-05T10:19:19.021Z,32.40
2018-07-05T10:20:19.002Z,32.78
2018-07-05T10:21:19.019Z,32.95
2018-07-05T10:22:19.036Z,32.92
2018-07-05T10:23:19.049Z,33.20
2018-07-05T10:24:19.063Z,33.28
2018-07-05T10:25:19.078Z,33.19
2018-07-05T10:26:19.093Z,32.36
2018-07-05T10:27:19.109Z,31.58
2018-07-05T10:28:19.123Z,31.07
2018-07-05T10:29:19.139Z,30.83
2018-07-05T10:30:19.153Z,31.00
2018-07-05T10:31:19.170Z,31.66
2018-07-05T10:32:19.184Z,31.78
2018-07-05T10:33:19.198Z,31.94
2018-07-05T10:34:19.218Z,31.77
2018-07-05T10:35:19.230Z,31.31
2018-07-05T10:36:19.243Z,31.10
2018-07-05T10:37:19.258Z,31.61
2018-07-05T10:38:19.276Z,31.20
2018-07-05T10:39:19.290Z,30.99
2018-07-05T10:40:19.305Z,30.87
2018-07-05T10:41:19.319Z,31.07
2018-07-05T10:42:19.335Z,30.77
2018-07-05T10:43:19.350Z,30.90
2018-07-05T10:44:19.365Z,30.83
2018-07-05T10:45:19.380Z,31.15
2018-07-05T10:46:19.393Z,30.77
2018-07-05T10:47:19.409Z,31.07
2018-07-05T10:48:19.424Z,31.43
2018-07-05T10:49:19.439Z,31.87
2018-07-05T10:50:19.454Z,32.07
2018-07-05T10:51:19.469Z,31.80
2018-07-05T10:52:19.483Z,31.85
2018-07-05T10:53:19.500Z,31.66
2018-07-05T10:54:19.514Z,31.70
2018-07-05T10:55:19.553Z,31.33
2018-07-05T10:56:19.542Z,31.69
2018-07-05T10:57:19.558Z,30.73
2018-07-05T10:58:19.576Z,31.06
2018-07-05T10:59:19.588Z,31.43
2018-07-05T11:00:19.601Z,31.28
2018-07-05T11:01:19.616Z,31.20
2018-07-05T11:02:19.632Z,30.50
2018-07-05T11:03:19.646Z,30.13
2018-07-05T11:04:19.662Z,29.87
2018-07-05T11:05:19.675Z,30.00
2018-07-05T11:06:19.689Z,30.13
2018-07-05T11:07:19.705Z,29.71
2018-07-05T11:08:19.716Z,29.66
2018-07-05T11:09:19.733Z,29.94
2018-07-05T11:10:19.748Z,30.32
2018-07-05T11:11:19.761Z,30.37
2018-07-05T11:12:19.773Z,30.69
2018-07-05T11:13:19.790Z,30.48
2018-07-05T11:14:19.824Z,29.94
2018-07-05T11:15:19.816Z,29.49
2018-07-05T11:16:19.830Z,29.60
2018-07-05T11:17:19.845Z,30.00
2018-07-05T11:18:19.860Z,30.44
2018-07-05T11:19:19.873Z,30.54
2018-07-05T11:20:19.885Z,30.61
2018-07-05T11:21:19.899Z,29.98
2018-07-05T11:22:19.913Z,29.50
2018-07-05T11:23:19.926Z,29.10
2018-07-05T11:24:19.940Z,28.64
2018-07-05T11:25:19.952Z,28.20
2018-07-05T11:26:19.972Z,27.89
2018-07-05T11:27:19.983Z,27.70
2018-07-05T11:28:20.001Z,27.83
2018-07-05T11:29:20.007Z,28.17
2018-07-05T11:30:20.067Z,28.23
2018-07-05T11:31:20.040Z,28.22
2018-07-05T11:32:20.044Z,28.29
2018-07-05T11:33:20.056Z,28.60
2018-07-05T11:34:20.072Z,28.57
2018-07-05T11:35:20.085Z,28.66
2018-07-05T11:36:20.111Z,28.64
2018-07-05T11:37:20.109Z,28.72
2018-07-05T11:38:20.124Z,28.97
2018-07-05T11:39:20.133Z,28.93
2018-07-05T11:40:20.146Z,28.86
2018-07-05T11:41:20.159Z,28.47
2018-07-05T11:42:20.219Z,28.22
2018-07-05T11:43:20.187Z,27.87
2018-07-05T11:44:20.197Z,27.96
2018-07-05T11:45:20.208Z,27.95
2018-07-05T11:46:20.220Z,28.37
2018-07-05T11:47:20.232Z,28.41
2018-07-05T11:48:20.244Z,28.63
2018-07-05T11:49:20.255Z,28.78
2018-07-05T11:50:20.269Z,28.76
2018-07-05T11:51:20.284Z,28.85
2018-07-05T11:52:20.333Z,28.45
2018-07-05T11:53:20.308Z,28.60
2018-07-05T11:54:20.317Z,28.78
2018-07-05T11:55:20.329Z,28.91
2018-07-05T11:56:20.340Z,28.72
2018-07-05T11:57:20.352Z,28.39
2018-07-05T11:58:20.364Z,28.33
2018-07-05T11:59:20.377Z,28.12
2018-07-05T12:00:20.386Z,28.19
2018-07-05T12:01:20.400Z,28.29
2018-07-05T12:02:20.409Z,28.26
2018-07-05T12:03:20.423Z,28.29
2018-07-05T12:04:20.433Z,28.27
2018-07-05T12:05:20.445Z,28.22
2018-07-05T12:06:20.457Z,28.25
2018-07-05T12:07:20.468Z,28.57
2018-07-05T12:08:20.479Z,28.66
2018-07-05T12:09:20.491Z,28.86
2018-07-05T12:10:20.504Z,28.86
2018-07-05T12:11:20.514Z,28.98
2018-07-05T12:12:20.548Z,28.89
2018-07-05T12:13:20.540Z,28.78
2018-07-05T12:14:20.549Z,28.79
2018-07-05T12:15:20.561Z,28.78
2018-07-05T12:16:20.572Z,28.76
2018-07-05T12:17:20.581Z,28.32
2018-07-05T12:18:20.610Z,28.39
2018-07-05T12:19:20.607Z,28.37
2018-07-05T12:20:20.615Z,28.29
2018-07-05T12:21:20.629Z,28.26
2018-07-05T12:22:20.638Z,28.32
2018-07-05T12:23:20.652Z,28.62
2018-07-05T12:24:20.796Z,28.89
2018-07-05T12:25:20.673Z,28.76
2018-07-05T12:26:20.683Z,28.57
2018-07-05T12:27:20.695Z,28.59
2018-07-05T12:28:20.705Z,28.74
2018-07-05T12:29:20.776Z,28.85
2018-07-05T12:30:20.727Z,28.67
2018-07-05T12:31:20.741Z,28.63
2018-07-05T12:32:20.749Z,28.85
2018-07-05T12:33:20.761Z,29.04
2018-07-05T12:34:20.772Z,28.97
2018-07-05T12:35:20.784Z,28.91
2018-07-05T12:36:20.794Z,28.74
2018-07-05T12:37:20.805Z,28.67
2018-07-05T12:38:20.816Z,28.54
2018-07-05T12:39:20.836Z,28.42
2018-07-05T12:40:20.844Z,28.39
2018-07-05T12:41:20.849Z,28.15
2018-07-05T12:42:20.861Z,28.12
2018-07-05T12:43:20.873Z,28.22
2018-07-05T12:44:20.882Z,28.49
2018-07-05T12:45:20.894Z,28.76
2018-07-05T12:46:20.904Z,28.91
2018-07-05T12:47:20.915Z,29.02
2018-07-05T12:48:20.926Z,29.12
2018-07-05T12:49:20.936Z,29.14
2018-07-05T12:50:20.947Z,28.82
2018-07-05T12:51:20.958Z,29.10
2018-07-05T12:52:20.969Z,28.60